createdAt,value
2022-10-16T00:01:45.437Z,2.00
2022-10-16T00:04:13.524Z,1.67
2022-10-16T00:06:41.426Z,1.90
2022-10-16T00:09:09.490Z,2.10
2022-10-16T00:11:41.492Z,2.23
2022-10-16T00:14:12.195Z,1.80
2022-10-16T00:16:40.586Z,1.83
2022-10-16T00:19:08.851Z,2.00
2022-10-16T00:21:36.690Z,2.30
2022-10-16T00:24:06.998Z,1.60
2022-10-16T00:26:36.129Z,2.60
2022-10-16T00:29:05.744Z,1.47
2022-10-16T00:31:33.553Z,1.80
2022-10-16T00:34:01.497Z,2.00
2022-10-16T00:36:29.300Z,1.87
2022-10-16T00:41:34.476Z,1.70
2022-10-16T00:44:04.061Z,1.90
2022-10-16T00:46:39.535Z,1.80
2022-10-16T00:49:10.235Z,1.50
2022-10-16T00:51:41.924Z,1.80
2022-10-16T00:54:12.307Z,1.60
2022-10-16T00:56:40.103Z,1.60
2022-10-16T00:59:17.055Z,1.40
2022-10-16T01:01:46.149Z,1.50
2022-10-16T01:04:14.038Z,1.40
2022-10-16T01:06:49.236Z,1.40
2022-10-16T01:09:23.731Z,1.67
2022-10-16T01:12:01.952Z,1.50
2022-10-16T01:14:39.403Z,1.47
2022-10-16T01:17:13.943Z,1.43
2022-10-16T01:20:02.390Z,1.50
2022-10-16T01:22:41.646Z,1.40
2022-10-16T01:25:18.774Z,1.40
2022-10-16T01:27:49.180Z,1.57
2022-10-16T01:30:22.305Z,1.70
2022-10-16T01:32:54.870Z,1.40
2022-10-16T01:35:27.251Z,1.70
2022-10-16T01:38:00.754Z,1.47
2022-10-16T01:40:30.438Z,1.60
2022-10-16T01:43:04.713Z,1.47
2022-10-16T01:45:33.724Z,1.17
2022-10-16T01:48:05.065Z,1.57
2022-10-16T01:50:34.871Z,1.73
2022-10-16T01:53:05.456Z,1.40
2022-10-16T01:55:38.704Z,1.87
2022-10-16T01:58:10.998Z,1.40
2022-10-16T02:00:40.103Z,1.50
2022-10-16T02:03:10.697Z,1.60
2022-10-16T02:05:43.258Z,1.40
2022-10-16T02:08:11.162Z,1.43
2022-10-16T02:10:40.096Z,1.40
2022-10-16T02:13:16.330Z,1.40
2022-10-16T02:15:44.099Z,1.43
2022-10-16T02:18:12.367Z,1.50
2022-10-16T02:20:48.755Z,1.40
2022-10-16T02:23:21.607Z,1.30
2022-10-16T02:25:51.931Z,1.60
2022-10-16T02:28:26.754Z,1.30
2022-10-16T02:30:59.319Z,1.50
2022-10-16T02:33:28.942Z,1.47
2022-10-16T02:35:58.567Z,1.53
2022-10-16T02:38:27.260Z,1.20
2022-10-16T02:40:55.159Z,1.30
2022-10-16T02:43:24.638Z,1.60
2022-10-16T02:45:52.861Z,1.30
2022-10-16T02:48:20.534Z,1.60
2022-10-16T02:50:48.218Z,1.30
2022-10-16T02:53:15.916Z,1.27
2022-10-16T02:55:43.570Z,1.50
2022-10-16T02:58:11.459Z,1.20
2022-10-16T03:00:40.668Z,1.40
2022-10-16T03:03:08.495Z,1.33
2022-10-16T03:05:36.138Z,1.77
2022-10-16T03:08:03.901Z,1.33
2022-10-16T03:10:31.579Z,2.10
2022-10-16T03:12:59.261Z,1.50
2022-10-16T03:15:26.968Z,1.90
2022-10-16T03:17:56.084Z,1.50
2022-10-16T03:20:23.771Z,1.37
2022-10-16T03:22:51.487Z,1.23
2022-10-16T03:25:19.234Z,1.20
2022-10-16T03:27:47.020Z,1.40
2022-10-16T03:30:15.019Z,1.43
2022-10-16T03:32:42.726Z,3.13
2022-10-16T03:35:11.979Z,4.33
2022-10-16T03:37:39.638Z,3.73
2022-10-16T03:40:08.320Z,2.80
2022-10-16T03:42:36.191Z,2.13
2022-10-16T03:45:03.890Z,1.80
2022-10-16T03:47:31.658Z,1.90
2022-10-16T03:49:59.350Z,1.73
2022-10-16T03:52:28.677Z,1.70
2022-10-16T03:54:56.636Z,1.90
2022-10-16T03:57:24.706Z,1.60
2022-10-16T03:59:52.744Z,1.67
2022-10-16T04:02:20.426Z,1.57
2022-10-16T04:04:48.163Z,2.30
2022-10-16T04:07:15.837Z,2.30
2022-10-16T04:09:44.836Z,2.00
2022-10-16T04:12:13.088Z,1.60
2022-10-16T04:14:40.799Z,1.87
2022-10-16T04:17:08.490Z,2.23
2022-10-16T04:19:36.239Z,3.10
2022-10-16T04:22:04.005Z,5.57
2022-10-16T04:24:31.696Z,5.10
2022-10-16T04:27:00.866Z,4.00
2022-10-16T04:29:28.563Z,2.20
2022-10-16T04:31:56.486Z,2.07
2022-10-16T04:34:24.259Z,1.73
2022-10-16T04:36:52.018Z,1.70
2022-10-16T04:39:19.827Z,1.70
2022-10-16T04:41:47.549Z,1.60
2022-10-16T04:44:16.886Z,1.60
2022-10-16T04:46:45.332Z,1.70
2022-10-16T04:49:13.018Z,2.30
2022-10-16T04:51:40.695Z,2.07
2022-10-16T04:54:08.374Z,2.20
2022-10-16T04:56:41.127Z,2.70
2022-10-16T04:59:08.799Z,4.13
2022-10-16T05:01:37.837Z,3.90
2022-10-16T05:04:05.524Z,3.60
2022-10-16T05:06:33.354Z,3.83
2022-10-16T05:09:01.106Z,2.80
2022-10-16T05:11:29.019Z,1.70
2022-10-16T05:13:56.718Z,1.50
2022-10-16T05:16:24.660Z,1.53
2022-10-16T05:18:56.319Z,1.30
2022-10-16T05:21:37.999Z,1.40
2022-10-16T05:24:05.919Z,1.80
2022-10-16T05:26:33.631Z,2.00
2022-10-16T05:29:01.715Z,2.10
2022-10-16T05:31:29.421Z,1.90
2022-10-16T05:34:01.671Z,1.60
2022-10-16T05:36:29.654Z,1.50
2022-10-16T05:38:57.351Z,1.50
2022-10-16T05:41:26.691Z,1.50
2022-10-16T05:43:54.566Z,1.40
2022-10-16T05:46:22.547Z,1.30
2022-10-16T05:48:50.471Z,1.33
2022-10-16T05:51:19.538Z,1.40
2022-10-16T05:53:47.416Z,1.10
2022-10-16T05:56:15.196Z,1.70
2022-10-16T05:58:45.179Z,1.63
2022-10-16T06:01:16.482Z,2.13
2022-10-16T06:03:44.974Z,2.00
2022-10-16T06:06:14.742Z,2.23
2022-10-16T06:08:46.200Z,2.47
2022-10-16T06:11:15.387Z,2.10
2022-10-16T06:13:43.555Z,1.80
2022-10-16T06:16:12.408Z,2.40
2022-10-16T06:18:40.799Z,2.87
2022-10-16T06:21:13.323Z,3.10
2022-10-16T06:23:41.246Z,2.80
2022-10-16T06:26:12.569Z,2.50
2022-10-16T06:28:40.737Z,2.10
2022-10-16T06:31:11.031Z,2.10
2022-10-16T06:33:40.281Z,2.13
2022-10-16T06:36:10.009Z,2.10
2022-10-16T06:38:38.562Z,2.00
2022-10-16T06:41:07.699Z,2.00
2022-10-16T06:43:37.111Z,2.00
2022-10-16T06:46:08.587Z,2.00
2022-10-16T06:48:36.433Z,1.87
2022-10-16T06:51:06.442Z,2.37
2022-10-16T06:53:40.044Z,2.60
2022-10-16T06:56:19.274Z,2.63
2022-10-16T06:58:49.310Z,3.20
2022-10-16T07:01:18.182Z,3.20
2022-10-16T07:03:48.335Z,3.40
2022-10-16T07:06:17.914Z,3.10
2022-10-16T07:08:47.642Z,2.60
2022-10-16T07:11:16.926Z,2.60
2022-10-16T07:13:49.298Z,2.30
2022-10-16T07:16:24.361Z,2.10
2022-10-16T07:18:55.370Z,1.87
2022-10-16T07:21:26.474Z,2.23
2022-10-16T07:23:54.819Z,2.00
2022-10-16T07:26:23.081Z,1.93
2022-10-16T07:28:51.845Z,1.80
2022-10-16T07:31:22.706Z,1.80
2022-10-16T07:33:51.364Z,2.07
2022-10-16T07:36:20.955Z,2.10
2022-10-16T07:38:48.822Z,2.00
2022-10-16T07:41:19.260Z,2.50
2022-10-16T07:43:48.315Z,2.20
2022-10-16T07:46:17.312Z,2.37
2022-10-16T07:48:47.854Z,2.03
2022-10-16T07:51:16.733Z,1.57
2022-10-16T07:53:44.639Z,1.50
2022-10-16T07:56:12.906Z,1.50
2022-10-16T07:58:41.094Z,1.27
2022-10-16T08:01:10.766Z,1.20
2022-10-16T08:03:39.675Z,1.23
2022-10-16T08:06:08.830Z,1.20
2022-10-16T08:08:36.550Z,1.40
2022-10-16T08:11:05.017Z,1.57
2022-10-16T08:13:33.158Z,1.60
2022-10-16T08:16:01.241Z,1.30
2022-10-16T08:18:28.931Z,1.40
2022-10-16T08:21:01.282Z,1.40
2022-10-16T08:23:30.784Z,1.37
2022-10-16T08:26:05.857Z,1.53
2022-10-16T08:28:33.736Z,1.20
2022-10-16T08:31:08.341Z,1.40
2022-10-16T08:33:36.931Z,1.40
2022-10-16T08:36:05.949Z,1.20
2022-10-16T08:38:35.162Z,1.47
2022-10-16T08:41:23.837Z,1.40
2022-10-16T08:44:13.000Z,1.30
2022-10-16T08:46:50.559Z,1.20
2022-10-16T08:49:19.155Z,1.20
2022-10-16T08:51:49.263Z,1.10
2022-10-16T08:54:27.423Z,1.20
2022-10-16T08:56:56.568Z,1.10
2022-10-16T08:59:24.670Z,1.02
2022-10-16T09:01:54.055Z,1.00
2022-10-16T09:04:46.451Z,1.00
2022-10-16T09:07:22.787Z,1.10
2022-10-16T09:10:14.156Z,1.02
2022-10-16T09:12:46.396Z,0.95
2022-10-16T09:15:25.439Z,1.00
2022-10-16T09:18:02.005Z,1.00
2022-10-16T09:20:34.835Z,1.00
2022-10-16T09:23:15.644Z,1.00
2022-10-16T09:25:48.518Z,1.00
2022-10-16T09:28:17.160Z,1.05
2022-10-16T09:30:45.618Z,0.98
2022-10-16T09:33:15.447Z,1.00
2022-10-16T09:35:45.601Z,0.93
2022-10-16T09:38:24.664Z,1.20
2022-10-16T09:40:58.782Z,1.50
2022-10-16T09:43:37.437Z,1.63
2022-10-16T09:46:07.101Z,2.00
2022-10-16T09:48:40.815Z,2.28
2022-10-16T09:51:20.598Z,2.22
2022-10-16T09:53:49.536Z,2.20
2022-10-16T09:56:26.395Z,2.00
2022-10-16T09:58:55.436Z,2.22
2022-10-16T10:01:27.047Z,1.98
2022-10-16T10:04:01.874Z,2.35
2022-10-16T10:06:32.207Z,1.95
2022-10-16T10:09:04.326Z,1.65
2022-10-16T10:11:49.115Z,1.85
2022-10-16T10:14:23.347Z,1.50
2022-10-16T10:16:52.085Z,1.60
2022-10-16T10:19:21.665Z,1.55
2022-10-16T10:21:50.636Z,1.48
2022-10-16T10:24:20.350Z,1.58
2022-10-16T10:26:59.232Z,1.60
2022-10-16T10:29:47.908Z,1.30
2022-10-16T10:32:25.542Z,1.15
2022-10-16T10:35:09.195Z,1.30
2022-10-16T10:37:56.123Z,1.30
2022-10-16T10:40:32.395Z,1.10
2022-10-16T10:43:07.126Z,1.33
2022-10-16T10:45:43.496Z,1.13
2022-10-16T10:48:42.954Z,1.20
2022-10-16T10:51:15.359Z,1.13
2022-10-16T10:53:56.938Z,0.85
2022-10-16T10:56:44.257Z,1.02
2022-10-16T10:59:45.329Z,1.10
2022-10-16T11:02:22.131Z,1.08
2022-10-16T11:05:40.526Z,1.10
2022-10-16T11:08:13.006Z,1.20
2022-10-16T11:10:48.813Z,1.50
2022-10-16T11:13:30.259Z,1.33
2022-10-16T11:16:01.350Z,1.70
2022-10-16T11:18:38.519Z,1.38
2022-10-16T11:21:11.429Z,1.33
2022-10-16T11:23:45.093Z,1.50
2022-10-16T11:26:18.632Z,1.15
2022-10-16T11:28:50.434Z,1.50
2022-10-16T11:31:24.568Z,1.15
2022-10-16T11:34:00.991Z,1.30
2022-10-16T11:36:35.552Z,1.20
2022-10-16T11:39:10.803Z,1.38
2022-10-16T11:41:44.775Z,1.20
2022-10-16T11:44:22.683Z,1.17
2022-10-16T11:47:24.461Z,1.10
2022-10-16T11:49:51.530Z,1.20
2022-10-16T11:52:26.722Z,1.02
2022-10-16T11:54:59.825Z,1.00
2022-10-16T11:57:31.461Z,1.00
2022-10-16T12:00:05.631Z,1.20
2022-10-16T12:02:52.910Z,1.00
2022-10-16T12:05:27.174Z,1.00
2022-10-16T12:08:05.813Z,1.02
2022-10-16T12:13:32.336Z,1.63
2022-10-16T12:16:22.573Z,1.27
2022-10-16T12:19:04.528Z,1.30
2022-10-16T12:21:33.291Z,1.30
2022-10-16T12:24:05.119Z,1.00
2022-10-16T12:26:37.008Z,1.05
2022-10-16T12:29:28.401Z,0.80
2022-10-16T12:31:58.473Z,0.95
2022-10-16T12:34:33.518Z,0.98
2022-10-16T12:37:12.308Z,0.95
2022-10-16T12:39:40.221Z,1.00
2022-10-16T12:42:22.619Z,1.20
2022-10-16T12:44:50.675Z,1.20
2022-10-16T12:47:24.382Z,1.00
2022-10-16T12:49:55.632Z,1.00
2022-10-16T12:52:29.017Z,1.02
2022-10-16T12:55:01.658Z,1.00
2022-10-16T12:57:42.305Z,1.50
2022-10-16T13:00:22.993Z,1.20
2022-10-16T13:03:23.533Z,0.93
2022-10-16T13:06:06.687Z,0.77
2022-10-16T13:08:57.044Z,1.05
2022-10-16T13:11:35.694Z,1.00
2022-10-16T13:14:20.886Z,0.95
2022-10-16T13:17:02.717Z,0.95
2022-10-16T13:19:40.779Z,0.90
2022-10-16T13:22:19.161Z,1.10
2022-10-16T13:25:02.538Z,0.90
2022-10-16T13:27:39.429Z,0.82
2022-10-16T13:30:14.964Z,0.98
2022-10-16T13:32:47.353Z,1.00
2022-10-16T13:35:25.595Z,0.73
2022-10-16T13:38:06.260Z,0.90
2022-10-16T13:40:35.603Z,0.98
2022-10-16T13:43:03.798Z,1.20
2022-10-16T13:45:31.486Z,1.10
2022-10-16T13:48:06.434Z,0.95
2022-10-16T13:50:34.471Z,0.80
2022-10-16T13:53:07.489Z,1.05
2022-10-16T13:55:35.667Z,1.10
2022-10-16T13:58:07.861Z,1.15
2022-10-16T14:00:36.369Z,1.10
2022-10-16T14:03:07.247Z,1.20
2022-10-16T14:05:35.524Z,1.02
2022-10-16T14:08:03.504Z,1.05
2022-10-16T14:10:34.570Z,1.02
2022-10-16T14:13:06.325Z,1.00
2022-10-16T14:15:36.606Z,1.10
2022-10-16T14:18:05.566Z,0.77
2022-10-16T14:20:36.139Z,1.15
2022-10-16T14:23:05.921Z,1.10
2022-10-16T14:25:35.002Z,1.13
2022-10-16T14:28:05.318Z,0.82
2022-10-16T14:30:35.500Z,1.17
2022-10-16T14:33:05.404Z,0.95
2022-10-16T14:35:35.321Z,1.02
2022-10-16T14:38:05.526Z,0.95
2022-10-16T14:40:37.123Z,1.17
2022-10-16T14:43:06.916Z,1.00
2022-10-16T14:45:37.269Z,1.30
2022-10-16T14:48:19.546Z,1.33
2022-10-16T14:50:47.826Z,1.20
2022-10-16T14:53:15.830Z,1.20
2022-10-16T14:55:45.437Z,1.38
2022-10-16T14:58:17.135Z,1.13
2022-10-16T15:00:44.920Z,1.38
2022-10-16T15:03:12.839Z,1.27
2022-10-16T15:05:40.625Z,1.40
2022-10-16T15:08:08.620Z,1.38
2022-10-16T15:10:41.606Z,1.20
2022-10-16T15:13:18.399Z,3.38
2022-10-16T15:15:46.969Z,12.63
2022-10-16T15:18:20.771Z,12.82
2022-10-16T15:20:50.893Z,16.08
2022-10-16T15:23:20.867Z,9.73
2022-10-16T15:25:51.203Z,4.10
2022-10-16T15:28:21.640Z,1.83
2022-10-16T15:30:52.336Z,1.48
2022-10-16T15:33:21.500Z,2.22
2022-10-16T15:35:50.085Z,2.30
2022-10-16T15:38:19.383Z,1.73
2022-10-16T15:40:47.884Z,2.10
2022-10-16T15:43:15.765Z,2.95
2022-10-16T15:45:44.839Z,3.47
2022-10-16T15:48:14.040Z,2.42
2022-10-16T15:53:16.023Z,2.65
2022-10-16T15:55:43.717Z,3.50
2022-10-16T15:58:11.836Z,3.15
2022-10-16T16:00:39.639Z,2.80
2022-10-16T16:03:08.726Z,2.78
2022-10-16T16:05:44.110Z,2.58
2022-10-16T16:08:14.301Z,2.15
2022-10-16T16:10:42.181Z,2.08
2022-10-16T16:13:09.926Z,2.00
2022-10-16T16:15:41.233Z,1.80
2022-10-16T16:18:11.022Z,1.47
2022-10-16T16:20:38.923Z,1.60
2022-10-16T16:23:06.596Z,1.33
2022-10-16T16:25:34.535Z,2.10
2022-10-16T16:28:02.300Z,1.63
2022-10-16T16:30:30.055Z,1.87
2022-10-16T16:32:57.760Z,1.60
2022-10-16T16:35:26.826Z,1.80
2022-10-16T16:37:54.520Z,3.60
2022-10-16T16:40:22.220Z,6.10
2022-10-16T16:42:50.571Z,5.33
2022-10-16T16:45:18.377Z,5.57
2022-10-16T16:47:46.139Z,6.53
2022-10-16T16:50:13.799Z,4.60
2022-10-16T16:52:42.873Z,3.60
2022-10-16T16:55:10.824Z,3.80
2022-10-16T16:57:38.513Z,3.77
2022-10-16T17:00:07.088Z,3.00
2022-10-16T17:02:34.820Z,2.70
2022-10-16T17:05:02.552Z,2.30
2022-10-16T17:07:33.643Z,2.30
2022-10-16T17:10:03.351Z,2.17
2022-10-16T17:12:31.141Z,2.33
2022-10-16T17:14:58.863Z,2.37
2022-10-16T17:17:26.895Z,1.90
2022-10-16T17:19:54.904Z,2.27
2022-10-16T17:22:22.651Z,2.10
2022-10-16T17:24:52.163Z,2.00
2022-10-16T17:27:22.671Z,2.50
2022-10-16T17:29:52.843Z,2.53
2022-10-16T17:32:21.836Z,2.20
2022-10-16T17:34:49.546Z,1.80
2022-10-16T17:37:18.310Z,2.00
2022-10-16T17:39:46.313Z,1.90
2022-10-16T17:42:14.051Z,2.00
2022-10-16T17:44:43.159Z,2.10
2022-10-16T17:47:10.860Z,2.20
2022-10-16T17:49:38.693Z,2.33
2022-10-16T17:52:06.386Z,3.90
2022-10-16T17:54:34.148Z,2.10
2022-10-16T17:57:01.928Z,2.00
2022-10-16T17:59:29.635Z,1.63
2022-10-16T18:01:58.834Z,2.10
2022-10-16T18:04:26.640Z,2.60
2022-10-16T18:06:55.945Z,2.20
2022-10-16T18:09:24.435Z,1.87
2022-10-16T18:11:59.659Z,2.93
2022-10-16T18:14:28.666Z,2.60
2022-10-16T18:16:58.230Z,3.10
2022-10-16T18:19:26.835Z,2.10
2022-10-16T18:21:55.665Z,1.80
2022-10-16T18:24:25.060Z,2.47
2022-10-16T18:26:56.446Z,2.83
2022-10-16T18:29:25.187Z,2.87
2022-10-16T18:31:53.493Z,2.73
2022-10-16T18:34:23.047Z,2.83
2022-10-16T18:36:52.816Z,3.53
2022-10-16T18:39:23.685Z,4.17
2022-10-16T18:41:55.062Z,3.67
2022-10-16T18:44:22.776Z,2.73
2022-10-16T18:46:52.408Z,2.07
2022-10-16T18:49:20.098Z,2.83
2022-10-16T18:51:52.709Z,2.43
2022-10-16T18:54:20.408Z,2.60
2022-10-16T18:56:48.144Z,2.40
2022-10-16T18:59:19.382Z,2.10
2022-10-16T19:01:48.639Z,2.50
2022-10-16T19:04:18.211Z,2.10
2022-10-16T19:06:48.272Z,2.03
2022-10-16T19:09:19.703Z,2.03
2022-10-16T19:11:47.605Z,2.03
2022-10-16T19:14:16.829Z,2.30
2022-10-16T19:16:45.092Z,2.37
2022-10-16T19:19:15.102Z,2.60
2022-10-16T19:21:43.514Z,2.13
2022-10-16T19:24:13.929Z,2.17
2022-10-16T19:26:43.450Z,2.20
2022-10-16T19:29:11.582Z,2.23
2022-10-16T19:31:39.888Z,2.37
2022-10-16T19:34:07.990Z,1.90
2022-10-16T19:36:37.827Z,2.10
2022-10-16T19:39:07.460Z,2.13
2022-10-16T19:41:37.851Z,2.23
2022-10-16T19:44:10.164Z,2.20
2022-10-16T19:46:37.980Z,2.50
2022-10-16T19:49:07.973Z,1.90
2022-10-16T19:51:36.631Z,2.77
2022-10-16T19:54:05.906Z,2.10
2022-10-16T19:56:35.348Z,2.30
2022-10-16T19:59:04.428Z,2.53
2022-10-16T20:01:34.033Z,2.20
2022-10-16T20:04:02.388Z,2.03
2022-10-16T20:06:30.104Z,1.80
2022-10-16T20:08:58.498Z,1.70
2022-10-16T20:11:29.040Z,1.80
2022-10-16T20:13:57.408Z,1.70
2022-10-16T20:16:25.940Z,1.90
2022-10-16T20:18:55.537Z,2.40
2022-10-16T20:21:25.251Z,3.30
2022-10-16T20:23:53.750Z,2.53
2022-10-16T20:26:24.027Z,2.00
2022-10-16T20:28:53.652Z,1.70
2022-10-16T20:31:23.876Z,1.80
2022-10-16T20:33:52.775Z,1.80
2022-10-16T20:36:23.761Z,2.20
2022-10-16T20:38:52.093Z,2.00
2022-10-16T20:41:20.304Z,1.70
2022-10-16T20:43:49.730Z,1.90
2022-10-16T20:46:20.058Z,1.73
2022-10-16T20:48:48.353Z,1.70
2022-10-16T20:51:18.216Z,2.00
2022-10-16T20:53:48.767Z,1.90
2022-10-16T20:56:17.552Z,1.97
2022-10-16T20:58:45.543Z,2.00
2022-10-16T21:01:15.200Z,2.10
2022-10-16T21:03:43.518Z,2.30
2022-10-16T21:06:12.218Z,2.00
2022-10-16T21:08:41.664Z,2.10
2022-10-16T21:11:15.814Z,1.97
2022-10-16T21:13:44.130Z,1.83
2022-10-16T21:16:13.309Z,1.80
2022-10-16T21:18:44.550Z,2.00
2022-10-16T21:21:21.034Z,1.93
2022-10-16T21:23:49.264Z,1.73
2022-10-16T21:26:20.962Z,1.87
2022-10-16T21:28:48.711Z,2.07
2022-10-16T21:31:19.740Z,2.20
2022-10-16T21:33:47.477Z,1.70
2022-10-16T21:36:17.106Z,1.57
2022-10-16T21:38:47.931Z,1.77
2022-10-16T21:41:19.646Z,1.90
2022-10-16T21:43:47.788Z,1.87
2022-10-16T21:46:16.736Z,1.80
2022-10-16T21:48:44.548Z,1.67
2022-10-16T21:51:12.985Z,1.90
2022-10-16T21:53:41.512Z,1.70
2022-10-16T21:56:14.445Z,1.80
2022-10-16T21:58:44.207Z,1.77
2022-10-16T22:01:13.891Z,1.90
2022-10-16T22:03:41.937Z,1.60
2022-10-16T22:06:11.249Z,2.00
2022-10-16T22:08:39.991Z,1.73
2022-10-16T22:11:10.200Z,1.83
2022-10-16T22:13:38.406Z,1.80
2022-10-16T22:16:08.412Z,1.70
2022-10-16T22:18:37.728Z,1.60
2022-10-16T22:21:07.117Z,1.77
2022-10-16T22:23:35.287Z,1.90
2022-10-16T22:26:04.998Z,1.80
2022-10-16T22:28:32.997Z,1.70
2022-10-16T22:31:02.840Z,1.67
2022-10-16T22:33:31.911Z,2.03
2022-10-16T22:36:01.609Z,1.60
2022-10-16T22:38:30.079Z,1.63
2022-10-16T22:41:02.511Z,2.10
2022-10-16T22:43:30.281Z,1.83
2022-10-16T22:46:02.886Z,1.47
2022-10-16T22:48:31.907Z,1.90
2022-10-16T22:50:59.619Z,1.90
2022-10-16T22:53:27.364Z,1.63
2022-10-16T22:55:55.189Z,1.93
2022-10-16T22:58:22.989Z,1.80
2022-10-16T23:00:50.826Z,1.83
2022-10-16T23:03:19.246Z,1.60
2022-10-16T23:05:48.370Z,1.50
2022-10-16T23:08:16.292Z,1.60
2022-10-16T23:10:45.985Z,1.40
2022-10-16T23:13:14.828Z,1.43
2022-10-16T23:15:44.029Z,2.23
2022-10-16T23:18:12.381Z,2.40
2022-10-16T23:20:41.434Z,2.00
2022-10-16T23:23:10.873Z,1.70
2022-10-16T23:25:38.668Z,1.80
2022-10-16T23:28:06.402Z,2.03
2022-10-16T23:30:34.144Z,1.73
2022-10-16T23:33:01.851Z,2.10
2022-10-16T23:35:29.597Z,1.83
2022-10-16T23:37:58.148Z,1.90
2022-10-16T23:40:27.297Z,1.80
2022-10-16T23:42:54.980Z,1.67
2022-10-16T23:45:22.696Z,1.70
2022-10-16T23:47:50.383Z,1.43
2022-10-16T23:50:18.284Z,1.90
2022-10-16T23:52:45.980Z,1.67
2022-10-16T23:55:13.667Z,1.60
2022-10-16T23:57:42.762Z,1.70
